• Join FlightAware (Why Join?)
  • Login
  • US Flag 
04:25AM EDT


 

Airport Tracker/Info


-or-


 

Live Flight TrackerFlight Track Log ✈ EJA396 ✈ 27-Sep-2013 ✈ KLWB - KVJI

Flight Track Log - Related Links

Times and Time Zones

All times are in EDT time to prevent confusion due to time zone crossing. See the EJA396 flight status page for this flight to view local times or setup timezone preferences in your user account.

Time Position Orientation Groundspeed Altitude Reporting Facility
EDT Latitude Longitude Course Direction KTS MPH feet Rate Location/Type
04:06PM 37.8456 -80.3439 195° South 346 398 6,400  Level Washington Center
04:07PM 37.7817 -80.3739 200° South 263 303 9,400 2,700 Climbing Washington Center
04:08PM 37.7500 -80.5541 195° South  Level Estimated
04:08PM 37.6903 -80.4208 202° Southwest 288 331 11,900  Level Washington Center
04:09PM 37.5986 -80.4672 202° Southwest 334 384 12,000  Climbing Washington Center
04:10PM 37.5050 -80.5136 201° Southwest 360 414 12,000  Level Washington Center
04:12PM 37.3300 -80.5964 201° Southwest 376 433 12,000  Level Atlanta Center
04:13PM 37.2394 -80.6394 201° Southwest 366 421 12,000  Level Atlanta Center
04:14PM 37.1622 -80.7156 218° Southwest 357 411 12,000  Level Atlanta Center
04:15PM 37.1194 -80.8347 246° West 351 404 12,000  Level Atlanta Center
04:16PM 37.0847 -80.9350 247° West 362 417 12,000  Level Atlanta Center
04:17PM 37.0436 -81.0508 246° West 362 417 12,000  Level Atlanta Center
04:18PM 37.0006 -81.1644 245° Southwest 362 417 12,000  Level Atlanta Center
04:19PM 36.9572 -81.2803 245° Southwest 362 417 12,000  Level Atlanta Center
04:20PM 36.9122 -81.4089 246° West 367 422 12,000 -60 Level Atlanta Center
04:21PM 36.8708 -81.5219 245° Southwest 361 415 11,900 -900 Descending Atlanta Center
04:22PM 36.8375 -81.6267 248° West 347 399 10,300 -1,560 Descending Atlanta Center
04:23PM 36.8036 -81.7158 245° Southwest 301 346 8,800 -1,500 Descending Atlanta Center
04:24PM 36.7761 -81.7969 247° West 270 311 7,400 -1,440 Descending Atlanta Center
04:25PM 36.7503 -81.8678 246° West 246 283 6,000 -720 Descending Atlanta Center
04:26PM 36.7222 -81.9358 243° Southwest 246 283 6,000 960 Level Atlanta Center
04:27PM 36.6922 -82.0092 243° Southwest 246 283 8,000 960 Climbing Atlanta Center
04:28PM 36.6619 -82.0797 242° Southwest 246 283 8,000  Level Atlanta Center
04:29PM 36.6500 -82.1086 243° Southwest 246 283 8,000  Level Atlanta Center
04:30PM 36.6500 -82.1086 270° West 246 283 8,000  Level Atlanta Center
04:32PM 36.6500 -82.1086 270° West 246 283 8,000  Level Atlanta Center